createdAt,value
2017-09-01T00:02:26.894Z,86.80
2017-09-01T00:04:55.165Z,87.00
2017-09-01T00:07:23.409Z,87.10
2017-09-01T00:09:51.668Z,87.40
2017-09-01T00:12:19.950Z,87.90
2017-09-01T00:14:49.077Z,88.20
2017-09-01T00:17:17.362Z,87.70
2017-09-01T00:19:45.766Z,87.80
2017-09-01T00:22:13.989Z,87.70
2017-09-01T00:24:42.262Z,87.60
2017-09-01T00:27:10.539Z,87.30
2017-09-01T00:29:38.794Z,86.70
2017-09-01T00:32:07.063Z,87.30
2017-09-01T00:34:35.298Z,87.80
2017-09-01T00:37:03.554Z,88.30
2017-09-01T00:39:31.824Z,88.50
2017-09-01T00:42:00.125Z,88.10
2017-09-01T00:44:28.369Z,88.40
2017-09-01T00:46:56.643Z,87.90
2017-09-01T00:49:24.884Z,87.00
2017-09-01T00:51:53.143Z,86.90
2017-09-01T00:54:21.855Z,87.00
2017-09-01T00:56:50.085Z,86.40
2017-09-01T00:59:18.381Z,86.90
2017-09-01T01:01:46.733Z,86.70
2017-09-01T01:04:17.845Z,86.60
2017-09-01T01:06:46.080Z,86.50
2017-09-01T01:09:14.366Z,85.80
2017-09-01T01:11:42.610Z,86.20
2017-09-01T01:14:10.867Z,86.00
2017-09-01T01:16:39.138Z,85.90
2017-09-01T01:19:07.414Z,85.40
2017-09-01T01:21:35.721Z,85.30
2017-09-01T01:24:03.999Z,85.50
2017-09-01T01:26:32.282Z,85.30
2017-09-01T01:29:00.525Z,84.90
2017-09-01T01:31:28.802Z,84.80
2017-09-01T01:33:57.083Z,85.20
2017-09-01T01:36:25.347Z,85.30
2017-09-01T01:38:53.634Z,86.00
2017-09-01T01:41:21.922Z,85.60
2017-09-01T01:43:50.218Z,85.40
2017-09-01T01:46:18.501Z,86.00
2017-09-01T01:48:46.771Z,85.40
2017-09-01T01:51:15.053Z,85.90
2017-09-01T01:53:43.330Z,86.00
2017-09-01T01:56:11.629Z,86.40
2017-09-01T01:58:39.890Z,86.50
2017-09-01T02:01:08.193Z,86.40
2017-09-01T02:03:36.461Z,85.90
2017-09-01T02:06:04.717Z,86.40
2017-09-01T02:08:33.177Z,86.30
2017-09-01T02:11:01.470Z,85.20
2017-09-01T02:13:29.779Z,85.20
2017-09-01T02:15:58.090Z,85.00
2017-09-01T02:18:26.317Z,84.70
2017-09-01T02:20:54.578Z,84.80
2017-09-01T02:23:22.916Z,84.90
2017-09-01T02:25:51.142Z,85.50
2017-09-01T02:28:19.432Z,85.20
2017-09-01T02:30:47.725Z,84.90
2017-09-01T02:33:16.012Z,84.50
2017-09-01T02:35:44.248Z,84.80
2017-09-01T02:38:12.541Z,84.90
2017-09-01T02:40:40.851Z,85.90
2017-09-01T02:43:09.869Z,86.50
2017-09-01T02:45:38.126Z,86.50
2017-09-01T02:48:06.408Z,86.20
2017-09-01T02:50:34.686Z,86.20
2017-09-01T02:53:02.928Z,86.30
2017-09-01T02:55:31.207Z,86.50
2017-09-01T02:58:00.362Z,86.00
2017-09-01T03:00:28.644Z,85.40
2017-09-01T03:02:56.922Z,85.60
2017-09-01T03:05:25.166Z,85.80
2017-09-01T03:07:53.496Z,85.20
2017-09-01T03:10:22.014Z,85.50
2017-09-01T03:12:50.243Z,85.60
2017-09-01T03:15:18.557Z,85.60
2017-09-01T03:17:46.833Z,86.00
2017-09-01T03:20:15.095Z,86.30
2017-09-01T03:22:43.367Z,86.60
2017-09-01T03:25:11.653Z,86.00
2017-09-01T03:27:39.927Z,85.80
2017-09-01T03:30:08.194Z,85.90
2017-09-01T03:32:36.434Z,86.00
2017-09-01T03:35:04.717Z,85.40
2017-09-01T03:37:32.997Z,85.30
2017-09-01T03:40:01.287Z,85.70
2017-09-01T03:42:29.561Z,85.20
2017-09-01T03:44:57.858Z,85.70
2017-09-01T03:47:26.094Z,86.00
2017-09-01T03:49:54.381Z,85.70
2017-09-01T03:52:22.637Z,86.00
2017-09-01T03:54:50.966Z,85.00
2017-09-01T03:57:19.234Z,85.80
2017-09-01T03:59:47.527Z,85.70
2017-09-01T04:02:15.801Z,85.90
2017-09-01T04:04:44.084Z,85.60
2017-09-01T04:07:12.368Z,85.60
2017-09-01T04:09:40.594Z,85.80
2017-09-01T04:12:08.864Z,85.60
2017-09-01T04:14:37.134Z,85.20
2017-09-01T04:17:05.383Z,84.60
2017-09-01T04:19:33.638Z,84.90
2017-09-01T04:22:01.934Z,85.20
2017-09-01T04:24:30.176Z,85.50
2017-09-01T04:26:58.426Z,85.50
2017-09-01T04:29:27.448Z,85.00
2017-09-01T04:31:55.747Z,85.00
2017-09-01T04:34:24.004Z,85.20
2017-09-01T04:36:52.264Z,84.80
2017-09-01T04:39:20.516Z,84.70
2017-09-01T04:41:48.767Z,84.80
2017-09-01T04:44:17.056Z,84.80
2017-09-01T04:46:45.344Z,85.20
2017-09-01T04:49:13.630Z,85.10
2017-09-01T04:51:41.886Z,85.10
2017-09-01T04:54:10.138Z,85.20
2017-09-01T04:56:38.385Z,84.90
2017-09-01T04:59:06.661Z,84.80
2017-09-01T05:01:34.918Z,84.40
2017-09-01T05:04:03.183Z,84.10
2017-09-01T05:06:31.445Z,84.30
2017-09-01T05:08:59.705Z,83.80
2017-09-01T05:11:27.976Z,84.10
2017-09-01T05:13:56.246Z,84.50
2017-09-01T05:16:24.535Z,84.50
2017-09-01T05:18:52.848Z,84.30
2017-09-01T05:21:21.086Z,84.30
2017-09-01T05:23:49.396Z,83.80
2017-09-01T05:26:17.694Z,83.70
2017-09-01T05:28:46.023Z,83.60
2017-09-01T05:31:14.304Z,83.60
2017-09-01T05:33:42.564Z,83.30
2017-09-01T05:36:10.816Z,83.30
2017-09-01T05:38:39.164Z,83.00
2017-09-01T05:41:07.453Z,83.40
2017-09-01T05:43:35.716Z,83.00
2017-09-01T05:46:03.988Z,82.60
2017-09-01T05:48:32.282Z,82.50
2017-09-01T05:51:00.510Z,82.90
2017-09-01T05:53:28.766Z,82.20
2017-09-01T05:55:57.049Z,82.70
2017-09-01T05:58:25.352Z,81.50
2017-09-01T06:00:53.597Z,81.80
2017-09-01T06:03:21.899Z,81.90
2017-09-01T06:05:50.160Z,80.70
2017-09-01T06:08:18.460Z,81.70
2017-09-01T06:10:46.786Z,80.70
2017-09-01T06:13:15.034Z,80.70
2017-09-01T06:15:43.290Z,80.10
2017-09-01T06:18:11.540Z,79.50
2017-09-01T06:20:39.816Z,79.60
2017-09-01T06:23:08.065Z,78.50
2017-09-01T06:25:36.343Z,78.70
2017-09-01T06:28:04.602Z,78.90
2017-09-01T06:30:32.866Z,78.40
2017-09-01T06:33:01.162Z,78.20
2017-09-01T06:35:29.402Z,77.10
2017-09-01T06:37:57.730Z,76.90
2017-09-01T06:40:25.963Z,76.20
2017-09-01T06:42:54.224Z,76.00
2017-09-01T06:45:22.506Z,75.70
2017-09-01T06:47:50.799Z,75.20
2017-09-01T06:50:19.075Z,75.40
2017-09-01T06:52:47.309Z,74.50
2017-09-01T06:55:15.582Z,74.60
2017-09-01T06:57:43.845Z,74.00
2017-09-01T07:00:12.087Z,74.40
2017-09-01T07:02:40.376Z,73.50
2017-09-01T07:05:08.625Z,73.80
2017-09-01T07:07:36.890Z,73.20
2017-09-01T07:10:05.154Z,73.70
2017-09-01T07:12:33.390Z,72.90
2017-09-01T07:15:01.643Z,73.60
2017-09-01T07:17:29.926Z,73.80
2017-09-01T07:19:58.212Z,73.70
2017-09-01T07:22:27.210Z,74.00
2017-09-01T07:24:55.517Z,74.00
2017-09-01T07:27:23.757Z,73.90
2017-09-01T07:29:52.038Z,72.90
2017-09-01T07:32:20.319Z,73.10
2017-09-01T07:34:48.606Z,73.40
2017-09-01T07:37:16.908Z,72.40
2017-09-01T07:39:45.139Z,72.80
2017-09-01T07:42:14.264Z,73.20
2017-09-01T07:44:42.552Z,72.40
2017-09-01T07:47:10.805Z,71.90
2017-09-01T07:49:39.073Z,72.80
2017-09-01T07:52:07.354Z,72.50
2017-09-01T07:54:35.588Z,72.30
2017-09-01T07:57:03.886Z,71.50
2017-09-01T07:59:32.153Z,71.20
2017-09-01T08:02:00.448Z,71.00
2017-09-01T08:04:28.718Z,71.80
2017-09-01T08:06:56.997Z,70.70
2017-09-01T08:09:25.246Z,71.40
2017-09-01T08:11:53.526Z,71.00
2017-09-01T08:14:21.809Z,71.60
2017-09-01T08:16:50.063Z,71.20
2017-09-01T08:19:18.434Z,71.20
2017-09-01T08:21:46.661Z,71.10
2017-09-01T08:24:14.939Z,70.50
2017-09-01T08:26:43.201Z,69.30
2017-09-01T08:29:11.474Z,70.40
2017-09-01T08:31:39.752Z,69.70
2017-09-01T08:34:07.994Z,68.70
2017-09-01T08:36:36.292Z,69.00
2017-09-01T08:39:04.557Z,69.50
2017-09-01T08:41:32.865Z,69.60
2017-09-01T08:44:01.122Z,69.10
2017-09-01T08:46:29.395Z,69.40
2017-09-01T08:48:57.677Z,69.10
2017-09-01T08:51:25.939Z,69.00
2017-09-01T08:53:54.219Z,68.70
2017-09-01T08:56:22.465Z,69.10
2017-09-01T08:58:50.714Z,68.30
2017-09-01T09:01:19.044Z,68.70
2017-09-01T09:03:48.064Z,67.90
2017-09-01T09:06:16.313Z,68.50
2017-09-01T09:08:44.582Z,67.90
2017-09-01T09:11:12.893Z,67.50
2017-09-01T09:13:41.177Z,66.70
2017-09-01T09:16:09.419Z,67.20
2017-09-01T09:18:37.694Z,64.70
2017-09-01T09:21:05.927Z,66.20
2017-09-01T09:23:34.209Z,66.60
2017-09-01T09:26:02.484Z,65.60
2017-09-01T09:28:30.746Z,64.90
2017-09-01T09:30:59.010Z,65.50
2017-09-01T09:33:27.274Z,64.60
2017-09-01T09:35:55.550Z,63.40
2017-09-01T09:38:23.846Z,60.40
2017-09-01T09:40:52.168Z,60.20
2017-09-01T09:43:20.466Z,59.50
2017-09-01T09:45:48.690Z,59.40
2017-09-01T09:48:16.961Z,59.20
2017-09-01T09:50:45.217Z,59.70
2017-09-01T09:53:13.593Z,58.30
2017-09-01T09:55:41.842Z,56.50
2017-09-01T09:58:10.112Z,56.00
2017-09-01T10:00:38.373Z,57.00
2017-09-01T10:03:06.921Z,56.50
2017-09-01T10:05:35.696Z,52.50
2017-09-01T10:08:03.970Z,50.40
2017-09-01T10:10:32.229Z,50.50
2017-09-01T10:13:00.479Z,48.50
2017-09-01T10:15:28.713Z,48.90
2017-09-01T10:17:56.974Z,47.00
2017-09-01T10:20:25.294Z,47.50
2017-09-01T10:22:53.527Z,47.60
2017-09-01T10:25:21.799Z,50.20
2017-09-01T10:27:50.091Z,49.50
2017-09-01T10:30:18.720Z,48.60
2017-09-01T10:32:46.958Z,48.20
2017-09-01T10:35:15.255Z,48.30
2017-09-01T10:37:43.484Z,46.40
2017-09-01T10:40:11.790Z,47.60
2017-09-01T10:42:40.021Z,47.40
2017-09-01T10:45:08.270Z,47.50
2017-09-01T10:47:48.475Z,48.60
2017-09-01T10:50:28.670Z,46.60
2017-09-01T10:53:08.881Z,46.30
2017-09-01T10:55:49.097Z,49.10
2017-09-01T10:58:26.179Z,45.70
2017-09-01T11:00:54.440Z,46.50
2017-09-01T11:03:22.706Z,47.50
2017-09-01T11:05:51.010Z,46.50
2017-09-01T11:08:19.271Z,45.40
2017-09-01T11:10:48.270Z,46.20
2017-09-01T11:13:16.561Z,46.10
2017-09-01T11:15:44.871Z,45.00
2017-09-01T11:18:13.661Z,43.50
2017-09-01T11:20:47.510Z,45.70
2017-09-01T11:23:21.360Z,43.60
2017-09-01T11:25:49.579Z,43.10
2017-09-01T11:28:17.884Z,43.40
2017-09-01T11:30:46.123Z,41.10
2017-09-01T11:33:14.376Z,41.70
2017-09-01T11:35:42.659Z,42.10
2017-09-01T11:38:10.882Z,41.80
2017-09-01T11:40:39.185Z,42.40
2017-09-01T11:43:07.420Z,43.20
2017-09-01T11:45:35.702Z,42.90
2017-09-01T11:48:03.972Z,43.60
2017-09-01T11:50:32.381Z,43.30
2017-09-01T11:53:00.627Z,42.90
2017-09-01T11:55:28.905Z,44.40
2017-09-01T11:57:57.188Z,46.30
2017-09-01T12:00:25.567Z,45.10
2017-09-01T12:02:54.361Z,45.70
2017-09-01T12:05:22.619Z,45.70
2017-09-01T12:07:50.895Z,43.90
2017-09-01T12:10:19.234Z,47.50
2017-09-01T12:12:47.516Z,45.10
2017-09-01T12:15:15.759Z,45.60
2017-09-01T12:17:44.055Z,44.40
2017-09-01T12:20:12.370Z,45.20
2017-09-01T12:22:40.752Z,46.20
2017-09-01T12:25:09.086Z,46.20
2017-09-01T12:27:37.355Z,45.60
2017-09-01T12:30:06.053Z,45.70
2017-09-01T12:32:34.538Z,45.40
2017-09-01T12:35:02.858Z,48.30
2017-09-01T12:37:31.137Z,48.20
2017-09-01T12:40:00.056Z,52.00
2017-09-01T12:42:28.473Z,55.00
2017-09-01T12:44:56.822Z,56.40
2017-09-01T12:47:25.144Z,57.40
2017-09-01T12:49:53.493Z,59.10
2017-09-01T12:52:21.803Z,60.70
2017-09-01T12:54:50.081Z,62.50
2017-09-01T12:57:18.358Z,64.20
2017-09-01T12:59:46.672Z,66.40
2017-09-01T13:02:14.954Z,68.60
2017-09-01T13:04:43.233Z,72.00
2017-09-01T13:07:11.498Z,74.20
2017-09-01T13:09:39.786Z,75.60
2017-09-01T13:12:08.059Z,75.60
2017-09-01T13:14:36.405Z,77.30
2017-09-01T13:17:04.639Z,77.60
2017-09-01T13:19:32.959Z,78.00
2017-09-01T13:22:01.265Z,76.90
2017-09-01T13:24:30.614Z,77.70
2017-09-01T13:26:59.638Z,79.00
2017-09-01T13:29:27.988Z,79.00
2017-09-01T13:31:56.314Z,78.70
2017-09-01T13:34:24.588Z,77.70
2017-09-01T13:36:52.858Z,76.50
2017-09-01T13:39:21.140Z,76.80
2017-09-01T13:41:49.430Z,74.80
2017-09-01T13:44:17.754Z,74.60
2017-09-01T13:46:46.044Z,75.60
2017-09-01T13:49:14.318Z,75.60
2017-09-01T13:51:42.595Z,77.70
2017-09-01T13:54:10.885Z,77.00
2017-09-01T13:56:39.178Z,77.30
2017-09-01T13:59:07.469Z,75.20
2017-09-01T14:01:35.736Z,76.00
2017-09-01T14:04:04.128Z,76.70
2017-09-01T14:06:32.394Z,75.40
2017-09-01T14:09:00.708Z,75.80
2017-09-01T14:11:29.419Z,75.60
2017-09-01T14:13:57.681Z,76.00
2017-09-01T14:16:25.943Z,75.80
2017-09-01T14:18:54.244Z,75.10
2017-09-01T14:21:22.551Z,75.50
2017-09-01T14:23:50.856Z,75.80
2017-09-01T14:26:19.111Z,75.10
2017-09-01T14:28:47.436Z,75.30
2017-09-01T14:31:15.976Z,76.00
2017-09-01T14:33:44.246Z,77.60
2017-09-01T14:36:12.548Z,77.20
2017-09-01T14:38:40.803Z,75.40
2017-09-01T14:41:09.086Z,73.90
2017-09-01T14:43:37.343Z,73.50
2017-09-01T14:46:05.632Z,71.40
2017-09-01T14:48:33.907Z,72.50
2017-09-01T14:51:02.214Z,70.20
2017-09-01T14:53:30.492Z,71.50
2017-09-01T14:55:58.764Z,69.10
2017-09-01T14:58:27.039Z,70.50
2017-09-01T15:00:55.320Z,69.10
2017-09-01T15:03:23.575Z,69.40
2017-09-01T15:05:52.128Z,68.00
2017-09-01T15:08:20.367Z,67.70
2017-09-01T15:10:48.642Z,69.20
2017-09-01T15:13:17.151Z,67.70
2017-09-01T15:15:45.547Z,68.40
2017-09-01T15:18:13.797Z,70.10
2017-09-01T15:20:52.118Z,69.10
2017-09-01T15:23:20.395Z,69.10
2017-09-01T15:25:48.667Z,69.30
2017-09-01T15:28:16.953Z,69.60
2017-09-01T15:30:45.224Z,69.80
2017-09-01T15:33:13.552Z,67.70
2017-09-01T15:35:41.811Z,66.30
2017-09-01T15:38:10.133Z,65.40
2017-09-01T15:40:38.426Z,63.80
2017-09-01T15:43:06.687Z,64.20
2017-09-01T15:45:35.500Z,68.50
2017-09-01T15:48:03.741Z,66.20
2017-09-01T15:50:31.985Z,66.20
2017-09-01T15:53:00.328Z,65.30
2017-09-01T15:55:28.630Z,63.70
2017-09-01T15:57:56.886Z,65.00
2017-09-01T16:00:25.164Z,64.90
2017-09-01T16:02:53.419Z,65.50
2017-09-01T16:05:21.749Z,64.90
2017-09-01T16:07:49.981Z,66.70
2017-09-01T16:10:18.267Z,67.00
2017-09-01T16:12:46.533Z,66.30
2017-09-01T16:15:14.783Z,66.50
2017-09-01T16:17:43.055Z,65.90
2017-09-01T16:20:11.334Z,67.80
2017-09-01T16:22:39.625Z,67.80
2017-09-01T16:25:07.903Z,67.60
2017-09-01T16:27:36.149Z,68.30
2017-09-01T16:30:04.430Z,69.70
2017-09-01T16:32:32.693Z,70.90
2017-09-01T16:35:00.988Z,71.00
2017-09-01T16:37:29.256Z,71.70
2017-09-01T16:39:57.499Z,72.30
2017-09-01T16:42:25.762Z,69.90
2017-09-01T16:44:54.017Z,70.00
2017-09-01T16:47:22.316Z,71.20
2017-09-01T16:49:50.615Z,71.10
2017-09-01T16:52:18.876Z,70.10
2017-09-01T16:54:47.139Z,70.20
2017-09-01T16:57:15.414Z,72.30
2017-09-01T16:59:43.677Z,74.50
2017-09-01T17:02:12.210Z,76.80
2017-09-01T17:04:40.463Z,78.00
2017-09-01T17:07:08.748Z,79.40
2017-09-01T17:09:36.967Z,78.90
2017-09-01T17:12:05.269Z,80.20
2017-09-01T17:14:33.504Z,81.10
2017-09-01T17:17:01.823Z,80.00
2017-09-01T17:19:30.140Z,80.90
2017-09-01T17:21:58.398Z,80.60
2017-09-01T17:24:26.655Z,81.40
2017-09-01T17:26:54.976Z,80.50
2017-09-01T17:29:23.227Z,80.10
2017-09-01T17:31:51.503Z,79.50
2017-09-01T17:34:19.768Z,79.70
2017-09-01T17:36:48.050Z,80.20
2017-09-01T17:39:16.284Z,78.60
2017-09-01T17:41:44.566Z,79.20
2017-09-01T17:44:12.822Z,80.10
2017-09-01T17:46:41.639Z,78.30
2017-09-01T17:49:09.899Z,77.50
2017-09-01T17:51:38.134Z,77.70
2017-09-01T17:54:06.411Z,78.00
2017-09-01T17:56:34.841Z,77.40
2017-09-01T17:59:03.839Z,79.20
2017-09-01T18:01:32.128Z,79.00
2017-09-01T18:04:01.176Z,79.10
2017-09-01T18:06:29.476Z,79.10
2017-09-01T18:08:57.772Z,79.40
2017-09-01T18:11:26.016Z,79.90
2017-09-01T18:13:54.402Z,80.00
2017-09-01T18:16:22.685Z,80.20
2017-09-01T18:18:50.982Z,80.80
2017-09-01T18:21:19.332Z,81.10
2017-09-01T18:23:47.600Z,81.30
2017-09-01T18:26:15.872Z,81.90
2017-09-01T18:28:44.271Z,81.90
2017-09-01T18:31:12.572Z,82.70
2017-09-01T18:33:40.875Z,81.80
2017-09-01T18:36:09.180Z,81.50
2017-09-01T18:38:37.496Z,81.30
2017-09-01T18:41:05.756Z,81.50
2017-09-01T18:43:34.042Z,81.20
2017-09-01T18:46:02.304Z,81.20
2017-09-01T18:48:31.085Z,82.00
2017-09-01T18:50:59.408Z,82.00
2017-09-01T18:53:27.686Z,81.70
2017-09-01T18:55:55.969Z,81.10
2017-09-01T18:58:24.405Z,82.00
2017-09-01T19:00:52.673Z,82.40
2017-09-01T19:03:20.970Z,82.90
2017-09-01T19:05:49.234Z,82.80
2017-09-01T19:08:17.580Z,84.00
2017-09-01T19:10:46.615Z,83.60
2017-09-01T19:13:14.891Z,83.40
2017-09-01T19:15:43.753Z,83.40
2017-09-01T19:18:12.357Z,83.50
2017-09-01T19:20:40.694Z,83.60
2017-09-01T19:23:09.039Z,83.60
2017-09-01T19:25:37.289Z,83.80
2017-09-01T19:28:05.585Z,83.70
2017-09-01T19:30:33.904Z,84.60
2017-09-01T19:33:02.161Z,84.70
2017-09-01T19:35:30.505Z,84.30
2017-09-01T19:37:58.804Z,85.00
2017-09-01T19:40:27.277Z,85.30
2017-09-01T19:42:55.879Z,85.30
2017-09-01T19:45:24.201Z,85.10
2017-09-01T19:47:52.495Z,85.10
2017-09-01T19:50:20.767Z,85.00
2017-09-01T19:52:49.480Z,85.50
2017-09-01T19:55:19.721Z,85.50
2017-09-01T19:57:48.370Z,85.30
2017-09-01T20:00:16.925Z,85.20
2017-09-01T20:02:45.212Z,84.40
2017-09-01T20:05:13.834Z,84.40
2017-09-01T20:07:42.220Z,84.40
2017-09-01T20:10:10.503Z,83.60
2017-09-01T20:12:39.576Z,83.70
2017-09-01T20:15:07.908Z,83.70
2017-09-01T20:17:36.217Z,84.00
2017-09-01T20:20:04.530Z,84.50
2017-09-01T20:22:32.820Z,84.80
2017-09-01T20:25:01.086Z,85.30
2017-09-01T20:27:29.358Z,85.60
2017-09-01T20:29:57.600Z,86.10
2017-09-01T20:32:25.900Z,86.70
2017-09-01T20:34:54.140Z,86.00
2017-09-01T20:37:22.411Z,85.40
2017-09-01T20:39:50.707Z,85.30
2017-09-01T20:42:18.950Z,85.60
2017-09-01T20:44:47.249Z,85.10
2017-09-01T20:47:15.593Z,84.90
2017-09-01T20:49:43.897Z,84.50
2017-09-01T20:52:12.174Z,83.90
2017-09-01T20:54:40.433Z,83.80
2017-09-01T20:57:08.792Z,84.20
2017-09-01T20:59:37.035Z,84.80
2017-09-01T21:02:05.372Z,84.70
2017-09-01T21:04:33.707Z,85.30
2017-09-01T21:07:02.007Z,84.90
2017-09-01T21:09:30.271Z,85.10
2017-09-01T21:11:58.594Z,85.70
2017-09-01T21:14:26.875Z,86.40
2017-09-01T21:16:55.142Z,86.60
2017-09-01T21:19:23.428Z,86.70
2017-09-01T21:21:51.772Z,86.60
2017-09-01T21:24:20.185Z,86.70
2017-09-01T21:26:48.485Z,87.30
2017-09-01T21:29:16.732Z,87.40
2017-09-01T21:31:44.983Z,87.40
2017-09-01T21:34:13.284Z,87.70
2017-09-01T21:36:41.538Z,87.70
2017-09-01T21:39:09.799Z,87.70
2017-09-01T21:41:38.070Z,87.90
2017-09-01T21:44:06.307Z,87.90
2017-09-01T21:46:34.592Z,87.10
2017-09-01T21:49:02.924Z,86.80
2017-09-01T21:51:31.170Z,86.40
2017-09-01T21:53:59.452Z,86.80
2017-09-01T21:56:27.910Z,86.40
2017-09-01T21:58:56.162Z,86.00
2017-09-01T22:01:33.278Z,85.90
2017-09-01T22:04:01.520Z,86.50
2017-09-01T22:06:29.784Z,86.80
2017-09-01T22:08:58.128Z,87.20
2017-09-01T22:11:26.347Z,87.40
2017-09-01T22:13:54.606Z,87.50
2017-09-01T22:16:22.892Z,86.80
2017-09-01T22:18:51.166Z,86.70
2017-09-01T22:21:19.473Z,86.50
2017-09-01T22:23:47.822Z,86.70
2017-09-01T22:26:16.075Z,86.80
2017-09-01T22:28:44.347Z,87.10
2017-09-01T22:31:12.601Z,86.70
2017-09-01T22:33:40.854Z,86.40
2017-09-01T22:36:09.134Z,85.80
2017-09-01T22:38:37.366Z,86.00
2017-09-01T22:41:05.634Z,86.40
2017-09-01T22:43:33.909Z,86.40
2017-09-01T22:46:02.218Z,85.70
2017-09-01T22:48:30.503Z,85.20
2017-09-01T22:50:58.788Z,85.60
2017-09-01T22:53:27.810Z,85.40
2017-09-01T22:55:56.078Z,85.30
2017-09-01T22:58:24.372Z,85.60
2017-09-01T23:00:52.624Z,86.60
2017-09-01T23:03:20.938Z,87.40
2017-09-01T23:05:49.729Z,87.50
2017-09-01T23:08:18.027Z,87.40
2017-09-01T23:10:46.304Z,87.50
2017-09-01T23:13:14.559Z,87.80
2017-09-01T23:15:42.822Z,88.20
2017-09-01T23:18:11.089Z,88.00
2017-09-01T23:20:39.352Z,87.50
2017-09-01T23:23:08.387Z,88.60
2017-09-01T23:25:36.710Z,88.60
2017-09-01T23:28:05.003Z,88.70
2017-09-01T23:30:33.255Z,88.30
2017-09-01T23:33:02.343Z,88.10
2017-09-01T23:35:30.569Z,88.10
2017-09-01T23:37:58.818Z,87.80
2017-09-01T23:40:27.083Z,88.30
2017-09-01T23:42:55.355Z,88.50
2017-09-01T23:45:23.613Z,87.90
2017-09-01T23:47:51.873Z,87.50
2017-09-01T23:50:20.174Z,87.60
2017-09-01T23:52:48.482Z,87.60
2017-09-01T23:55:16.706Z,87.40
2017-09-01T23:57:44.950Z,88.00
